createdAt,value
2022-09-10T00:08:58.914Z,12.48
2022-09-10T00:24:01.628Z,12.37
2022-09-10T00:39:15.308Z,12.10
2022-09-10T00:54:17.734Z,11.99
2022-09-10T01:09:20.463Z,11.88
2022-09-10T01:24:57.070Z,11.85
2022-09-10T01:39:59.894Z,12.04
2022-09-10T01:55:19.279Z,12.04
2022-09-10T02:10:23.706Z,12.02
2022-09-10T02:25:26.195Z,12.07
2022-09-10T02:40:33.611Z,12.01
2022-09-10T02:55:37.910Z,11.98
2022-09-10T03:10:40.250Z,12.00
2022-09-10T03:25:42.515Z,11.93
2022-09-10T03:40:44.811Z,11.97
2022-09-10T03:55:47.777Z,11.92
2022-09-10T04:10:51.672Z,11.96
2022-09-10T04:25:54.021Z,12.04
2022-09-10T04:40:57.882Z,12.07
2022-09-10T04:56:00.683Z,12.12
2022-09-10T05:11:03.025Z,12.17
2022-09-10T05:26:05.869Z,12.27
2022-09-10T05:41:11.226Z,12.43
2022-09-10T05:56:17.947Z,12.56
2022-09-10T06:11:20.678Z,12.48
2022-09-10T06:26:25.484Z,12.84
2022-09-10T06:41:31.167Z,12.83
2022-09-10T06:56:43.011Z,13.15
2022-09-10T07:11:45.535Z,13.27
2022-09-10T07:26:50.052Z,13.43
2022-09-10T07:41:52.353Z,13.81
2022-09-10T07:56:58.078Z,14.14
2022-09-10T08:12:01.567Z,13.85
2022-09-10T08:27:03.975Z,14.32
2022-09-10T08:42:22.495Z,14.43
2022-09-10T08:57:47.029Z,14.78
2022-09-10T09:13:20.382Z,15.63
2022-09-10T09:28:32.184Z,16.10
2022-09-10T09:43:46.304Z,15.93
2022-09-10T09:58:49.370Z,15.48
2022-09-10T10:13:51.641Z,16.33
2022-09-10T10:29:06.304Z,16.99
2022-09-10T10:44:14.592Z,15.58
2022-09-10T10:59:23.493Z,15.54
2022-09-10T11:14:48.638Z,15.02
2022-09-10T11:30:04.219Z,16.19
2022-09-10T11:45:33.456Z,18.44
2022-09-10T12:00:37.457Z,20.68
2022-09-10T12:15:40.826Z,18.95
2022-09-10T12:30:42.880Z,18.21
2022-09-10T12:46:04.622Z,17.24
2022-09-10T13:01:31.166Z,18.48
2022-09-10T13:16:34.917Z,17.64
2022-09-10T13:31:42.209Z,16.80
2022-09-10T13:46:46.795Z,17.63
2022-09-10T14:01:54.332Z,17.55
2022-09-10T14:17:15.778Z,18.36
2022-09-10T14:32:19.977Z,17.28
2022-09-10T14:47:34.831Z,17.16
2022-09-10T15:02:36.999Z,16.22
2022-09-10T15:17:39.355Z,16.31
2022-09-10T15:32:41.556Z,15.82
2022-09-10T15:47:43.765Z,15.40
2022-09-10T16:02:50.365Z,14.71
2022-09-10T16:17:52.624Z,14.18
2022-09-10T16:32:55.568Z,14.10
2022-09-10T16:48:03.949Z,13.92
2022-09-10T17:03:08.731Z,13.69
2022-09-10T17:18:11.966Z,13.63
2022-09-10T17:33:16.544Z,13.61
2022-09-10T17:48:20.265Z,13.43
2022-09-10T18:03:22.452Z,13.31
2022-09-10T18:18:24.640Z,13.12
2022-09-10T18:33:26.886Z,13.24
2022-09-10T18:48:35.185Z,13.26
2022-09-10T19:03:42.549Z,13.17
2022-09-10T19:18:49.976Z,13.06
2022-09-10T19:34:00.253Z,13.11
2022-09-10T19:49:03.340Z,12.94
2022-09-10T20:04:06.694Z,13.07
2022-09-10T20:19:10.836Z,13.17
2022-09-10T20:34:17.164Z,13.13
2022-09-10T20:49:19.374Z,13.16
2022-09-10T21:04:21.978Z,13.09
2022-09-10T21:19:24.173Z,13.16
2022-09-10T21:34:26.344Z,13.21
2022-09-10T21:49:28.693Z,13.15
2022-09-10T22:04:30.854Z,12.94
2022-09-10T22:19:33.013Z,12.88
2022-09-10T22:34:35.180Z,12.91
2022-09-10T22:49:37.383Z,12.88
2022-09-10T23:04:39.653Z,12.85
2022-09-10T23:19:41.874Z,12.75
2022-09-10T23:34:44.311Z,12.75
2022-09-10T23:49:46.649Z,12.86
